createdAt,value
2023-02-15T00:01:43.414Z,86.76
2023-02-15T00:04:10.804Z,86.61
2023-02-15T00:06:37.228Z,86.72
2023-02-15T00:09:04.071Z,86.76
2023-02-15T00:11:51.077Z,86.87
2023-02-15T00:14:21.474Z,87.07
2023-02-15T00:16:49.452Z,86.87
2023-02-15T00:19:20.848Z,87.15
2023-02-15T00:21:48.635Z,86.55
2023-02-15T00:24:16.865Z,86.48
2023-02-15T00:26:44.476Z,86.58
2023-02-15T00:29:12.181Z,86.64
2023-02-15T00:31:38.926Z,86.59
2023-02-15T00:34:18.842Z,86.67
2023-02-15T00:36:45.862Z,86.74
2023-02-15T00:39:15.408Z,86.45
2023-02-15T00:41:42.353Z,86.68
2023-02-15T00:44:09.006Z,86.79
2023-02-15T00:46:35.913Z,86.77
2023-02-15T00:49:02.711Z,86.15
2023-02-15T00:51:29.529Z,86.44
2023-02-15T00:53:56.147Z,86.62
2023-02-15T00:56:23.101Z,86.83
2023-02-15T00:58:49.504Z,86.85
2023-02-15T01:01:18.857Z,87.06
2023-02-15T01:03:47.341Z,87.07
2023-02-15T01:06:15.445Z,87.23
2023-02-15T01:08:45.262Z,86.90
2023-02-15T01:11:15.462Z,86.95
2023-02-15T01:13:42.635Z,86.98
2023-02-15T01:16:09.591Z,87.20
2023-02-15T01:18:36.885Z,87.34
2023-02-15T01:21:30.114Z,87.34
2023-02-15T01:23:56.523Z,87.48
2023-02-15T01:26:22.965Z,87.36
2023-02-15T01:28:49.548Z,87.41
2023-02-15T01:31:19.274Z,87.84
2023-02-15T01:33:46.908Z,87.71
2023-02-15T01:36:14.173Z,87.64
2023-02-15T01:38:40.942Z,87.78
2023-02-15T01:41:27.070Z,88.12
2023-02-15T01:44:01.963Z,87.59
2023-02-15T01:46:36.444Z,87.98
2023-02-15T01:49:26.841Z,88.23
2023-02-15T01:51:53.796Z,87.85
2023-02-15T01:54:27.082Z,88.29
2023-02-15T01:56:57.352Z,88.09
2023-02-15T01:59:25.563Z,88.07
2023-02-15T02:01:58.815Z,88.05
2023-02-15T02:04:51.523Z,88.45
2023-02-15T02:07:21.980Z,88.16
2023-02-15T02:09:49.146Z,88.65
2023-02-15T02:12:18.764Z,88.20
2023-02-15T02:14:47.434Z,88.81
2023-02-15T02:17:23.035Z,88.88
2023-02-15T02:20:16.409Z,88.92
2023-02-15T02:23:14.329Z,89.13
2023-02-15T02:26:24.947Z,89.00
2023-02-15T02:29:19.418Z,88.69
2023-02-15T02:32:04.838Z,89.23
2023-02-15T02:34:39.059Z,89.13
2023-02-15T02:37:35.791Z,89.54
2023-02-15T02:40:29.745Z,89.40
2023-02-15T02:43:06.614Z,89.43
2023-02-15T02:45:40.735Z,89.33
2023-02-15T02:48:14.001Z,89.21
2023-02-15T02:50:41.816Z,89.71
2023-02-15T02:53:12.040Z,89.87
2023-02-15T02:55:45.894Z,89.33
2023-02-15T02:58:21.579Z,89.53
2023-02-15T03:00:54.472Z,89.64
2023-02-15T03:03:30.919Z,89.58
2023-02-15T03:06:05.922Z,89.71
2023-02-15T03:08:43.312Z,89.90
2023-02-15T03:11:10.169Z,90.14
2023-02-15T03:13:36.665Z,90.10
2023-02-15T03:16:26.325Z,90.06
2023-02-15T03:18:58.754Z,90.20
2023-02-15T03:21:32.104Z,90.15
2023-02-15T03:24:05.552Z,90.33
2023-02-15T03:26:35.177Z,90.54
2023-02-15T03:29:04.668Z,90.77
2023-02-15T03:31:36.346Z,90.71
2023-02-15T03:34:07.329Z,90.79
2023-02-15T03:36:45.840Z,90.96
2023-02-15T03:39:19.784Z,90.69
2023-02-15T03:41:58.046Z,90.85
2023-02-15T03:44:30.170Z,91.01
2023-02-15T03:47:14.011Z,90.65
2023-02-15T03:49:49.511Z,91.01
2023-02-15T03:52:17.324Z,90.84
2023-02-15T03:54:44.593Z,90.68
2023-02-15T03:57:41.783Z,90.93
2023-02-15T04:00:36.836Z,90.92
2023-02-15T04:03:29.857Z,91.16
2023-02-15T04:05:56.312Z,91.20
2023-02-15T04:08:42.800Z,91.07
2023-02-15T04:11:09.322Z,91.03
2023-02-15T04:13:36.648Z,91.12
2023-02-15T04:16:07.077Z,90.89
2023-02-15T04:19:00.006Z,91.07
2023-02-15T04:21:46.749Z,91.56
2023-02-15T04:24:33.194Z,90.82
2023-02-15T04:27:00.411Z,91.34
2023-02-15T04:29:28.241Z,91.89
2023-02-15T04:31:56.720Z,91.85
2023-02-15T04:34:23.432Z,91.81
2023-02-15T04:36:51.094Z,91.65
2023-02-15T04:39:18.869Z,91.91
2023-02-15T04:41:45.553Z,92.07
2023-02-15T04:44:12.313Z,91.95
2023-02-15T04:46:38.743Z,91.94
2023-02-15T04:49:05.139Z,91.86
2023-02-15T04:51:31.916Z,91.98
2023-02-15T04:53:58.324Z,92.05
2023-02-15T04:56:25.261Z,91.95
2023-02-15T04:58:51.689Z,91.90
2023-02-15T05:01:18.342Z,92.16
2023-02-15T05:03:44.778Z,92.12
2023-02-15T05:06:11.727Z,91.87
2023-02-15T05:08:38.216Z,91.82
2023-02-15T05:11:05.145Z,92.21
2023-02-15T05:13:31.945Z,92.05
2023-02-15T05:15:58.406Z,91.88
2023-02-15T05:18:24.862Z,91.99
2023-02-15T05:20:51.413Z,92.05
2023-02-15T05:23:17.835Z,92.21
2023-02-15T05:26:09.970Z,92.19
2023-02-15T05:28:37.600Z,91.83
2023-02-15T05:31:08.073Z,91.83
2023-02-15T05:33:35.076Z,92.10
2023-02-15T05:36:02.637Z,91.88
2023-02-15T05:38:29.335Z,91.79
2023-02-15T05:40:55.879Z,91.83
2023-02-15T05:43:23.173Z,91.92
2023-02-15T05:45:54.386Z,92.19
2023-02-15T05:48:22.487Z,92.08
2023-02-15T05:51:01.772Z,92.27
2023-02-15T05:53:29.328Z,91.97
2023-02-15T05:56:00.277Z,92.23
2023-02-15T05:58:28.231Z,92.25
2023-02-15T06:00:54.738Z,92.36
2023-02-15T06:03:21.727Z,92.01
2023-02-15T06:05:48.286Z,92.24
2023-02-15T06:08:14.660Z,92.24
2023-02-15T06:10:41.115Z,92.12
2023-02-15T06:13:07.693Z,92.14
2023-02-15T06:15:34.368Z,91.80
2023-02-15T06:18:01.402Z,91.86
2023-02-15T06:20:27.855Z,92.07
2023-02-15T06:22:54.274Z,91.51
2023-02-15T06:25:20.759Z,91.78
2023-02-15T06:27:47.179Z,91.69
2023-02-15T06:30:14.309Z,92.14
2023-02-15T06:32:41.448Z,91.94
2023-02-15T06:35:08.299Z,91.83
2023-02-15T06:37:34.700Z,91.85
2023-02-15T06:40:03.648Z,91.60
2023-02-15T06:42:30.854Z,91.71
2023-02-15T06:44:57.358Z,91.93
2023-02-15T06:47:23.839Z,91.83
2023-02-15T06:49:50.214Z,91.74
2023-02-15T06:52:16.620Z,91.69
2023-02-15T06:54:43.008Z,91.83
2023-02-15T06:57:10.409Z,92.19
2023-02-15T06:59:36.972Z,92.32
2023-02-15T07:02:03.448Z,92.48
2023-02-15T07:04:30.923Z,92.31
2023-02-15T07:06:57.413Z,92.07
2023-02-15T07:09:24.170Z,92.28
2023-02-15T07:12:09.504Z,92.36
2023-02-15T07:14:36.276Z,92.27
2023-02-15T07:17:02.815Z,92.17
2023-02-15T07:19:29.231Z,92.11
2023-02-15T07:21:55.654Z,91.63
2023-02-15T07:24:22.102Z,91.51
2023-02-15T07:26:48.493Z,91.72
2023-02-15T07:29:15.363Z,91.62
2023-02-15T07:31:43.054Z,91.62
2023-02-15T07:34:09.586Z,91.49
2023-02-15T07:36:36.047Z,91.31
2023-02-15T07:39:02.655Z,91.37
2023-02-15T07:41:29.152Z,91.09
2023-02-15T07:43:55.558Z,91.32
2023-02-15T07:46:22.453Z,90.89
2023-02-15T07:48:48.945Z,90.70
2023-02-15T07:51:15.797Z,90.38
2023-02-15T07:53:42.779Z,90.20
2023-02-15T07:56:14.302Z,90.23
2023-02-15T07:58:53.105Z,90.45
2023-02-15T08:01:25.792Z,90.29
2023-02-15T08:03:53.442Z,90.14
2023-02-15T08:06:22.462Z,89.92
2023-02-15T08:08:48.937Z,90.16
2023-02-15T08:11:35.527Z,89.83
2023-02-15T08:14:03.484Z,89.68
2023-02-15T08:16:46.192Z,89.40
2023-02-15T08:19:21.135Z,89.29
2023-02-15T08:21:54.332Z,88.87
2023-02-15T08:24:23.374Z,88.74
2023-02-15T08:26:50.520Z,88.42
2023-02-15T08:29:19.509Z,87.98
2023-02-15T08:31:48.762Z,87.39
2023-02-15T08:34:18.534Z,87.52
2023-02-15T08:36:48.648Z,87.05
2023-02-15T08:39:15.832Z,87.17
2023-02-15T08:41:47.512Z,87.59
2023-02-15T08:44:16.511Z,86.92
2023-02-15T08:46:44.906Z,86.83
2023-02-15T08:49:14.568Z,86.37
2023-02-15T08:51:41.101Z,86.35
2023-02-15T08:54:10.491Z,85.84
2023-02-15T08:56:39.378Z,85.66
2023-02-15T08:59:06.413Z,85.39
2023-02-15T09:01:34.495Z,85.11
2023-02-15T09:04:05.028Z,84.86
2023-02-15T09:06:32.097Z,84.77
2023-02-15T09:08:58.810Z,84.94
2023-02-15T09:11:27.906Z,84.94
2023-02-15T09:14:03.858Z,85.28
2023-02-15T09:16:32.585Z,84.49
2023-02-15T09:18:59.493Z,84.97
2023-02-15T09:21:27.493Z,84.44
2023-02-15T09:23:58.638Z,83.98
2023-02-15T09:26:25.633Z,84.39
2023-02-15T09:28:56.415Z,84.00
2023-02-15T09:31:26.620Z,84.18
2023-02-15T09:33:53.332Z,84.13
2023-02-15T09:36:28.546Z,83.91
2023-02-15T09:39:16.629Z,83.63
2023-02-15T09:42:10.548Z,82.90
2023-02-15T09:44:45.448Z,82.67
2023-02-15T09:47:42.372Z,81.13
2023-02-15T09:50:32.364Z,81.04
2023-02-15T09:53:30.247Z,81.18
2023-02-15T09:56:20.151Z,80.98
2023-02-15T09:59:12.282Z,80.89
2023-02-15T10:02:07.000Z,80.47
2023-02-15T10:04:48.860Z,79.57
2023-02-15T10:07:37.254Z,78.87
2023-02-15T10:10:41.224Z,79.71
2023-02-15T10:13:34.778Z,78.68
2023-02-15T10:16:35.085Z,78.03
2023-02-15T10:19:11.483Z,77.83
2023-02-15T10:21:49.588Z,77.40
2023-02-15T10:24:48.731Z,77.34
2023-02-15T10:27:22.496Z,76.96
2023-02-15T10:30:10.571Z,75.71
2023-02-15T10:32:53.587Z,75.56
2023-02-15T10:35:43.872Z,75.77
2023-02-15T10:38:30.061Z,75.73
2023-02-15T10:41:35.323Z,75.28
2023-02-15T10:44:23.660Z,75.26
2023-02-15T10:47:14.669Z,75.19
2023-02-15T10:49:57.483Z,74.44
2023-02-15T10:52:36.808Z,73.93
2023-02-15T10:55:14.034Z,73.72
2023-02-15T10:58:03.325Z,73.87
2023-02-15T11:00:47.617Z,73.61
2023-02-15T11:03:34.860Z,73.30
2023-02-15T11:06:15.316Z,73.35
2023-02-15T11:08:47.807Z,71.68
2023-02-15T11:11:36.018Z,71.54
2023-02-15T11:14:12.494Z,72.13
2023-02-15T11:16:45.080Z,71.36
2023-02-15T11:19:17.783Z,68.58
2023-02-15T11:21:47.886Z,66.86
2023-02-15T11:24:19.115Z,67.06
2023-02-15T11:26:52.652Z,66.10
2023-02-15T11:29:37.471Z,66.62
2023-02-15T11:32:24.516Z,62.88
2023-02-15T11:35:13.516Z,61.19
2023-02-15T11:38:15.166Z,61.85
2023-02-15T11:40:57.123Z,61.21
2023-02-15T11:43:35.147Z,60.52
2023-02-15T11:46:01.730Z,59.27
2023-02-15T11:48:31.156Z,57.59
2023-02-15T11:50:58.184Z,58.02
2023-02-15T11:53:28.598Z,56.47
2023-02-15T11:55:56.226Z,55.87
2023-02-15T11:58:45.542Z,54.95
2023-02-15T12:01:33.233Z,52.54
2023-02-15T12:04:06.165Z,50.18
2023-02-15T12:06:47.379Z,48.68
2023-02-15T12:09:35.854Z,48.42
2023-02-15T12:12:23.425Z,48.09
2023-02-15T12:15:01.556Z,48.01
2023-02-15T12:17:31.941Z,46.54
2023-02-15T12:20:02.701Z,45.81
2023-02-15T12:22:33.089Z,46.40
2023-02-15T12:25:02.935Z,46.04
2023-02-15T12:27:33.125Z,44.85
2023-02-15T12:30:17.511Z,42.83
2023-02-15T12:33:17.362Z,42.50
2023-02-15T12:35:45.050Z,41.28
2023-02-15T12:38:11.370Z,41.61
2023-02-15T12:40:40.943Z,40.75
2023-02-15T12:43:26.673Z,39.65
2023-02-15T12:45:54.127Z,39.14
2023-02-15T12:48:21.892Z,38.38
2023-02-15T12:50:58.070Z,38.88
2023-02-15T12:53:35.797Z,38.00
2023-02-15T12:56:04.774Z,38.32
2023-02-15T12:58:33.008Z,38.09
2023-02-15T13:01:22.058Z,36.78
2023-02-15T13:03:59.271Z,36.95
2023-02-15T13:06:27.776Z,36.12
2023-02-15T13:09:07.028Z,35.57
2023-02-15T13:11:35.137Z,35.17
2023-02-15T13:14:04.872Z,34.97
2023-02-15T13:16:35.875Z,35.79
2023-02-15T13:19:13.495Z,35.28
2023-02-15T13:21:44.814Z,35.45
2023-02-15T13:24:28.478Z,36.34
2023-02-15T13:27:14.093Z,36.76
2023-02-15T13:29:45.252Z,35.87
2023-02-15T13:32:37.973Z,34.23
2023-02-15T13:35:08.000Z,33.68
2023-02-15T13:38:03.420Z,33.78
2023-02-15T13:40:58.728Z,34.11
2023-02-15T13:43:59.364Z,33.46
2023-02-15T13:46:31.767Z,33.56
2023-02-15T13:49:14.482Z,33.45
2023-02-15T13:52:09.192Z,33.13
2023-02-15T13:54:47.798Z,32.95
2023-02-15T13:57:37.443Z,33.10
2023-02-15T14:00:24.884Z,32.35
2023-02-15T14:02:56.985Z,32.27
2023-02-15T14:05:37.979Z,31.83
2023-02-15T14:08:26.518Z,31.83
2023-02-15T14:11:30.619Z,31.68
2023-02-15T14:14:06.897Z,31.90
2023-02-15T14:17:05.441Z,31.25
2023-02-15T14:20:00.627Z,31.62
2023-02-15T14:22:36.139Z,31.96
2023-02-15T14:25:38.949Z,31.78
2023-02-15T14:28:13.306Z,31.87
2023-02-15T14:30:43.696Z,32.02
2023-02-15T14:33:22.248Z,33.10
2023-02-15T14:35:49.350Z,32.19
2023-02-15T14:38:34.729Z,32.53
2023-02-15T14:41:21.123Z,32.99
2023-02-15T14:43:50.033Z,33.59
2023-02-15T14:46:46.143Z,33.83
2023-02-15T14:49:25.027Z,34.86
2023-02-15T14:51:51.353Z,34.99
2023-02-15T14:54:17.962Z,35.36
2023-02-15T14:57:07.953Z,35.39
2023-02-15T14:59:53.233Z,35.91
2023-02-15T15:02:24.102Z,36.59
2023-02-15T15:05:01.318Z,35.76
2023-02-15T15:07:37.341Z,36.39
2023-02-15T15:10:16.969Z,36.32
2023-02-15T15:12:45.836Z,36.47
2023-02-15T15:15:44.910Z,37.22
2023-02-15T15:18:44.359Z,37.05
2023-02-15T15:21:10.774Z,37.85
2023-02-15T15:23:40.263Z,38.39
2023-02-15T15:26:23.136Z,38.88
2023-02-15T15:28:49.500Z,39.48
2023-02-15T15:31:54.396Z,40.11
2023-02-15T15:35:01.970Z,40.47
2023-02-15T15:37:46.397Z,41.09
2023-02-15T15:40:35.301Z,40.97
2023-02-15T15:43:10.770Z,41.79
2023-02-15T15:46:06.362Z,41.73
2023-02-15T15:48:37.399Z,42.42
2023-02-15T15:51:20.446Z,42.79
2023-02-15T15:53:53.812Z,43.36
2023-02-15T15:56:33.246Z,44.20
2023-02-15T15:59:03.432Z,45.32
2023-02-15T16:01:35.129Z,45.45
2023-02-15T16:04:01.700Z,45.83
2023-02-15T16:06:30.320Z,46.36
2023-02-15T16:08:56.901Z,46.60
2023-02-15T16:11:27.255Z,47.33
2023-02-15T16:13:54.554Z,48.77
2023-02-15T16:16:24.401Z,48.68
2023-02-15T16:18:52.172Z,49.17
2023-02-15T16:21:27.744Z,49.23
2023-02-15T16:24:23.266Z,49.46
2023-02-15T16:27:04.566Z,49.67
2023-02-15T16:29:34.198Z,51.25
2023-02-15T16:32:25.600Z,52.09
2023-02-15T16:34:59.018Z,52.66
2023-02-15T16:37:35.390Z,52.64
2023-02-15T16:40:01.977Z,53.48
2023-02-15T16:42:28.776Z,54.02
2023-02-15T16:45:08.602Z,54.90
2023-02-15T16:47:42.112Z,55.61
2023-02-15T16:50:19.518Z,56.31
2023-02-15T16:52:46.537Z,56.84
2023-02-15T16:55:22.957Z,56.97
2023-02-15T16:57:50.318Z,57.71
2023-02-15T17:00:23.819Z,58.41
2023-02-15T17:03:01.391Z,58.90
2023-02-15T17:05:33.951Z,59.37
2023-02-15T17:08:03.351Z,59.65
2023-02-15T17:10:31.949Z,59.64
2023-02-15T17:13:10.160Z,60.28
2023-02-15T17:15:39.122Z,60.40
2023-02-15T17:18:11.538Z,60.51
2023-02-15T17:20:42.675Z,60.73
2023-02-15T17:23:36.373Z,61.06
2023-02-15T17:26:16.302Z,61.19
2023-02-15T17:28:48.721Z,60.87
2023-02-15T17:31:18.436Z,60.96
2023-02-15T17:33:45.486Z,60.55
2023-02-15T17:36:22.701Z,60.61
2023-02-15T17:38:58.369Z,60.09
2023-02-15T17:41:34.092Z,60.72
2023-02-15T17:44:02.333Z,60.32
2023-02-15T17:46:35.327Z,60.59
2023-02-15T17:49:02.132Z,60.63
2023-02-15T17:51:28.721Z,60.55
2023-02-15T17:54:13.655Z,60.35
2023-02-15T17:56:40.175Z,60.91
2023-02-15T17:59:11.176Z,61.17
2023-02-15T18:02:03.920Z,61.33
2023-02-15T18:04:50.727Z,61.42
2023-02-15T18:07:38.409Z,61.45
2023-02-15T18:10:43.949Z,61.90
2023-02-15T18:13:10.326Z,62.01
2023-02-15T18:15:36.800Z,61.88
2023-02-15T18:18:04.758Z,62.21
2023-02-15T18:20:36.778Z,62.82
2023-02-15T18:23:03.496Z,63.03
2023-02-15T18:25:29.884Z,63.03
2023-02-15T18:27:56.527Z,62.69
2023-02-15T18:30:26.394Z,62.24
2023-02-15T18:32:56.531Z,62.54
2023-02-15T18:35:25.669Z,62.87
2023-02-15T18:37:53.857Z,62.97
2023-02-15T18:40:24.629Z,62.91
2023-02-15T18:42:51.212Z,63.28
2023-02-15T18:45:21.043Z,63.15
2023-02-15T18:47:48.494Z,63.59
2023-02-15T18:50:20.416Z,63.99
2023-02-15T18:52:50.395Z,64.44
2023-02-15T18:55:21.676Z,64.89
2023-02-15T18:57:49.948Z,65.28
2023-02-15T19:00:17.833Z,65.34
2023-02-15T19:02:44.547Z,66.18
2023-02-15T19:05:11.603Z,66.63
2023-02-15T19:07:38.890Z,66.89
2023-02-15T19:10:08.089Z,67.29
2023-02-15T19:12:35.008Z,67.77
2023-02-15T19:15:02.006Z,67.94
2023-02-15T19:17:28.432Z,68.45
2023-02-15T19:19:54.852Z,68.36
2023-02-15T19:22:26.742Z,68.55
2023-02-15T19:24:54.833Z,68.67
2023-02-15T19:27:35.997Z,68.40
2023-02-15T19:30:13.990Z,68.49
2023-02-15T19:32:40.409Z,68.79
2023-02-15T19:35:13.016Z,68.58
2023-02-15T19:37:42.622Z,68.51
2023-02-15T19:40:19.367Z,68.68
2023-02-15T19:42:45.769Z,68.69
2023-02-15T19:45:31.899Z,68.73
2023-02-15T19:48:01.327Z,68.93
2023-02-15T19:50:33.147Z,69.30
2023-02-15T19:53:01.482Z,69.55
2023-02-15T19:55:30.804Z,70.13
2023-02-15T19:57:58.559Z,70.70
2023-02-15T20:00:27.899Z,70.86
2023-02-15T20:02:55.564Z,71.49
2023-02-15T20:05:23.010Z,72.17
2023-02-15T20:07:52.253Z,72.79
2023-02-15T20:10:20.223Z,73.18
2023-02-15T20:12:47.809Z,73.18
2023-02-15T20:15:23.164Z,73.33
2023-02-15T20:17:50.800Z,73.34
2023-02-15T20:20:20.905Z,73.48
2023-02-15T20:22:50.306Z,73.62
2023-02-15T20:25:21.657Z,74.14
2023-02-15T20:27:48.287Z,74.47
2023-02-15T20:30:21.219Z,74.41
2023-02-15T20:32:48.217Z,74.72
2023-02-15T20:35:20.035Z,74.97
2023-02-15T20:37:48.647Z,75.12
2023-02-15T20:40:25.419Z,75.20
2023-02-15T20:42:51.857Z,75.85
2023-02-15T20:45:24.812Z,75.85
2023-02-15T20:47:52.302Z,76.24
2023-02-15T20:50:29.764Z,76.70
2023-02-15T20:52:57.591Z,77.68
2023-02-15T20:55:30.193Z,78.26
2023-02-15T20:57:57.539Z,78.23
2023-02-15T21:00:29.330Z,78.36
2023-02-15T21:02:59.012Z,78.41
2023-02-15T21:05:28.399Z,78.74
2023-02-15T21:07:55.084Z,79.28
2023-02-15T21:10:25.611Z,79.19
2023-02-15T21:12:52.706Z,79.43
2023-02-15T21:15:41.797Z,78.99
2023-02-15T21:18:18.720Z,79.53
2023-02-15T21:20:48.092Z,79.95
2023-02-15T21:23:16.900Z,80.90
2023-02-15T21:25:44.781Z,80.59
2023-02-15T21:28:17.352Z,80.78
2023-02-15T21:30:43.799Z,81.13
2023-02-15T21:33:10.159Z,81.21
2023-02-15T21:35:37.599Z,81.13
2023-02-15T21:38:04.433Z,81.25
2023-02-15T21:40:32.570Z,81.14
2023-02-15T21:43:18.085Z,80.98
2023-02-15T21:46:16.879Z,81.00
2023-02-15T21:48:43.304Z,81.14
2023-02-15T21:51:28.188Z,80.94
2023-02-15T21:53:54.569Z,80.65
2023-02-15T21:56:22.339Z,80.83
2023-02-15T21:58:48.735Z,81.10
2023-02-15T22:01:24.423Z,80.92
2023-02-15T22:03:53.365Z,80.81
2023-02-15T22:06:21.238Z,81.13
2023-02-15T22:08:50.539Z,81.22
2023-02-15T22:11:20.721Z,81.47
2023-02-15T22:13:48.286Z,81.72
2023-02-15T22:16:17.615Z,81.42
2023-02-15T22:18:44.127Z,81.26
2023-02-15T22:21:11.642Z,81.38
2023-02-15T22:23:38.745Z,81.53
2023-02-15T22:26:08.653Z,81.67
2023-02-15T22:28:38.423Z,81.49
2023-02-15T22:31:10.475Z,81.91
2023-02-15T22:33:37.216Z,82.08
2023-02-15T22:36:04.008Z,82.41
2023-02-15T22:38:30.418Z,82.50
2023-02-15T22:41:03.640Z,82.57
2023-02-15T22:43:38.252Z,82.50
2023-02-15T22:46:08.293Z,82.80
2023-02-15T22:48:35.384Z,82.88
2023-02-15T22:51:02.230Z,82.87
2023-02-15T22:53:28.836Z,82.72
2023-02-15T22:55:56.133Z,82.84
2023-02-15T22:58:26.544Z,83.16
2023-02-15T23:00:53.002Z,83.71
2023-02-15T23:03:24.715Z,84.00
2023-02-15T23:05:52.029Z,84.32
2023-02-15T23:08:18.977Z,84.71
2023-02-15T23:10:49.056Z,85.02
2023-02-15T23:13:25.575Z,84.67
2023-02-15T23:15:55.906Z,84.69
2023-02-15T23:18:31.202Z,84.77
2023-02-15T23:21:00.889Z,84.63
2023-02-15T23:23:36.171Z,84.92
2023-02-15T23:26:04.586Z,84.84
2023-02-15T23:28:35.605Z,84.73
2023-02-15T23:31:02.878Z,84.71
2023-02-15T23:33:34.090Z,84.68
2023-02-15T23:36:00.538Z,84.57
2023-02-15T23:38:32.148Z,83.82
2023-02-15T23:41:19.520Z,84.40
2023-02-15T23:43:50.826Z,84.44
2023-02-15T23:46:24.880Z,84.32
2023-02-15T23:48:53.232Z,84.35
2023-02-15T23:51:21.570Z,84.18
2023-02-15T23:53:47.997Z,84.09
2023-02-15T23:56:15.002Z,84.44
2023-02-15T23:58:44.642Z,84.83
